createdAt,value
2023-04-23T00:01:05.457Z,3.90
2023-04-23T00:03:34.621Z,2.58
2023-04-23T00:06:05.627Z,3.35
2023-04-23T00:08:32.550Z,2.90
2023-04-23T00:10:59.563Z,3.33
2023-04-23T00:13:26.620Z,3.20
2023-04-23T00:15:53.444Z,3.40
2023-04-23T00:18:20.651Z,3.58
2023-04-23T00:20:47.327Z,2.95
2023-04-23T00:23:14.083Z,2.92
2023-04-23T00:25:40.977Z,2.80
2023-04-23T00:28:07.538Z,2.80
2023-04-23T00:30:34.176Z,2.65
2023-04-23T00:33:00.897Z,4.15
2023-04-23T00:35:27.512Z,3.28
2023-04-23T00:37:54.110Z,3.88
2023-04-23T00:40:21.079Z,4.15
2023-04-23T00:42:48.730Z,3.10
2023-04-23T00:45:15.442Z,2.72
2023-04-23T00:47:42.174Z,3.55
2023-04-23T00:50:09.640Z,2.50
2023-04-23T00:52:36.414Z,2.53
2023-04-23T00:55:03.229Z,2.75
2023-04-23T00:57:30.387Z,3.25
2023-04-23T00:59:58.398Z,3.83
2023-04-23T01:02:26.961Z,3.38
2023-04-23T01:04:54.895Z,3.67
2023-04-23T01:07:21.754Z,2.67
2023-04-23T01:09:50.189Z,2.88
2023-04-23T01:12:17.202Z,3.00
2023-04-23T01:14:44.017Z,3.30
2023-04-23T01:17:12.191Z,2.85
2023-04-23T01:19:39.281Z,2.53
2023-04-23T01:22:10.685Z,2.85
2023-04-23T01:24:37.341Z,2.85
2023-04-23T01:27:04.117Z,2.42
2023-04-23T01:29:31.160Z,3.10
2023-04-23T01:31:57.844Z,2.70
2023-04-23T01:34:24.525Z,2.60
2023-04-23T01:36:51.886Z,2.95
2023-04-23T01:39:18.551Z,3.25
2023-04-23T01:41:45.364Z,3.05
2023-04-23T01:44:11.972Z,2.95
2023-04-23T01:46:38.708Z,2.65
2023-04-23T01:49:05.617Z,2.75
2023-04-23T01:51:32.383Z,3.63
2023-04-23T01:53:59.098Z,2.78
2023-04-23T01:56:27.255Z,2.83
2023-04-23T01:58:54.023Z,2.92
2023-04-23T02:01:20.707Z,3.15
2023-04-23T02:03:47.632Z,2.45
2023-04-23T02:06:14.497Z,3.00
2023-04-23T02:08:41.329Z,2.90
2023-04-23T02:11:07.980Z,3.30
2023-04-23T02:13:34.935Z,3.20
2023-04-23T02:16:01.766Z,3.72
2023-04-23T02:18:28.618Z,3.38
2023-04-23T02:20:55.910Z,3.08
2023-04-23T02:23:22.627Z,3.67
2023-04-23T02:25:49.359Z,3.20
2023-04-23T02:28:16.203Z,3.28
2023-04-23T02:30:45.963Z,10.02
2023-04-23T02:33:12.916Z,4.05
2023-04-23T02:35:39.574Z,8.38
2023-04-23T02:38:06.296Z,10.45
2023-04-23T02:40:33.163Z,4.38
2023-04-23T02:42:59.859Z,3.30
2023-04-23T02:45:26.727Z,3.28
2023-04-23T02:47:53.627Z,3.78
2023-04-23T02:50:20.551Z,2.90
2023-04-23T02:52:48.255Z,2.70
2023-04-23T02:55:14.977Z,2.90
2023-04-23T02:57:41.770Z,3.47
2023-04-23T03:00:09.096Z,2.83
2023-04-23T03:02:36.037Z,2.83
2023-04-23T03:05:02.969Z,2.85
2023-04-23T03:07:29.696Z,2.97
2023-04-23T03:09:56.338Z,3.78
2023-04-23T03:12:22.995Z,2.95
2023-04-23T03:14:49.599Z,2.75
2023-04-23T03:17:16.450Z,3.35
2023-04-23T03:19:43.390Z,2.70
2023-04-23T03:22:10.139Z,3.03
2023-04-23T03:24:36.791Z,3.22
2023-04-23T03:27:03.422Z,3.08
2023-04-23T03:29:30.079Z,2.45
2023-04-23T03:31:56.913Z,3.05
2023-04-23T03:34:23.601Z,2.75
2023-04-23T03:36:51.141Z,2.88
2023-04-23T03:39:17.897Z,2.58
2023-04-23T03:41:44.574Z,2.58
2023-04-23T03:44:11.222Z,2.80
2023-04-23T03:46:38.108Z,2.60
2023-04-23T03:49:04.785Z,2.90
2023-04-23T03:51:31.850Z,2.70
2023-04-23T03:53:58.589Z,3.10
2023-04-23T03:56:27.033Z,3.20
2023-04-23T03:58:53.895Z,3.63
2023-04-23T04:01:20.616Z,3.03
2023-04-23T04:03:47.501Z,3.45
2023-04-23T04:06:14.589Z,2.67
2023-04-23T04:08:41.384Z,3.28
2023-04-23T04:11:08.401Z,4.50
2023-04-23T04:13:35.033Z,3.75
2023-04-23T04:16:01.762Z,3.47
2023-04-23T04:18:28.371Z,2.92
2023-04-23T04:20:55.063Z,3.15
2023-04-23T04:23:22.343Z,2.88
2023-04-23T04:25:50.946Z,3.67
2023-04-23T04:28:17.733Z,2.63
2023-04-23T04:30:44.718Z,3.47
2023-04-23T04:33:11.434Z,4.90
2023-04-23T04:35:38.122Z,4.10
2023-04-23T04:38:04.806Z,3.63
2023-04-23T04:40:31.506Z,5.03
2023-04-23T04:43:00.045Z,4.38
2023-04-23T04:45:26.727Z,3.78
2023-04-23T04:47:53.469Z,4.13
2023-04-23T04:50:20.156Z,4.68
2023-04-23T04:52:46.810Z,4.32
2023-04-23T04:55:13.430Z,4.25
2023-04-23T04:57:40.172Z,3.70
2023-04-23T05:00:27.811Z,3.88
2023-04-23T05:02:54.580Z,3.92
2023-04-23T05:05:21.707Z,4.75
2023-04-23T05:07:48.466Z,3.97
2023-04-23T05:10:15.773Z,3.83
2023-04-23T05:12:43.233Z,4.20
2023-04-23T05:15:13.081Z,4.03
2023-04-23T05:17:40.696Z,4.35
2023-04-23T05:20:10.646Z,4.43
2023-04-23T05:22:39.601Z,4.82
2023-04-23T05:25:07.112Z,5.65
2023-04-23T05:27:34.659Z,4.78
2023-04-23T05:30:02.704Z,6.10
2023-04-23T05:32:29.486Z,4.45
2023-04-23T05:34:56.161Z,4.47
2023-04-23T05:37:22.939Z,4.93
2023-04-23T05:39:49.767Z,5.13
2023-04-23T05:42:16.466Z,5.47
2023-04-23T05:44:43.305Z,5.72
2023-04-23T05:47:11.136Z,4.80
2023-04-23T05:49:37.743Z,4.93
2023-04-23T05:52:04.578Z,4.45
2023-04-23T05:54:31.388Z,4.70
2023-04-23T05:56:58.058Z,5.38
2023-04-23T05:59:24.749Z,4.28
2023-04-23T06:01:51.395Z,6.15
2023-04-23T06:04:18.270Z,5.35
2023-04-23T06:06:45.375Z,5.38
2023-04-23T06:09:12.336Z,6.38
2023-04-23T06:11:39.023Z,5.22
2023-04-23T06:14:05.706Z,5.55
2023-04-23T06:16:32.635Z,6.15
2023-04-23T06:18:59.360Z,8.60
2023-04-23T06:21:27.217Z,5.88
2023-04-23T06:23:54.630Z,6.07
2023-04-23T06:26:21.334Z,6.45
2023-04-23T06:28:48.079Z,6.45
2023-04-23T06:31:14.715Z,5.60
2023-04-23T06:33:41.682Z,6.38
2023-04-23T06:36:11.032Z,5.55
2023-04-23T06:38:38.348Z,6.10
2023-04-23T06:41:05.360Z,5.20
2023-04-23T06:43:38.784Z,5.57
2023-04-23T06:46:05.726Z,5.65
2023-04-23T06:48:32.336Z,5.25
2023-04-23T06:50:59.036Z,5.70
2023-04-23T06:53:26.340Z,9.13
2023-04-23T06:55:53.008Z,6.72
2023-04-23T06:58:19.811Z,4.97
2023-04-23T07:00:46.613Z,5.85
2023-04-23T07:03:13.383Z,4.72
2023-04-23T07:05:40.140Z,5.10
2023-04-23T07:08:07.004Z,6.20
2023-04-23T07:10:33.671Z,5.75
2023-04-23T07:13:00.639Z,5.68
2023-04-23T07:15:27.416Z,5.55
2023-04-23T07:17:54.196Z,6.32
2023-04-23T07:20:20.998Z,5.53
2023-04-23T07:22:47.978Z,5.45
2023-04-23T07:25:15.591Z,5.00
2023-04-23T07:27:42.208Z,5.00
2023-04-23T07:30:09.247Z,5.10
2023-04-23T07:32:35.950Z,4.70
2023-04-23T07:35:02.811Z,4.55
2023-04-23T07:37:29.476Z,5.43
2023-04-23T07:39:56.224Z,4.07
2023-04-23T07:42:22.923Z,4.25
2023-04-23T07:44:49.945Z,3.75
2023-04-23T07:47:16.696Z,4.30
2023-04-23T07:49:43.868Z,4.90
2023-04-23T07:52:10.671Z,3.88
2023-04-23T07:54:40.302Z,4.18
2023-04-23T07:57:07.220Z,3.60
2023-04-23T07:59:33.947Z,3.78
2023-04-23T08:02:00.578Z,4.22
2023-04-23T08:04:27.446Z,4.47
2023-04-23T08:06:54.258Z,4.30
2023-04-23T08:09:20.880Z,5.05
2023-04-23T08:11:48.216Z,4.20
2023-04-23T08:14:15.070Z,3.63
2023-04-23T08:16:45.323Z,4.05
2023-04-23T08:19:12.083Z,3.97
2023-04-23T08:21:38.856Z,3.45
2023-04-23T08:24:07.934Z,2.97
2023-04-23T08:26:34.965Z,4.15
2023-04-23T08:29:02.936Z,3.05
2023-04-23T08:31:29.757Z,4.65
2023-04-23T08:33:56.654Z,3.28
2023-04-23T08:36:23.387Z,3.67
2023-04-23T08:38:50.009Z,3.72
2023-04-23T08:41:18.081Z,3.47
2023-04-23T08:43:47.267Z,3.83
2023-04-23T08:46:16.084Z,2.97
2023-04-23T08:48:44.614Z,3.17
2023-04-23T08:51:12.588Z,3.42
2023-04-23T08:53:39.945Z,2.50
2023-04-23T08:56:07.836Z,2.83
2023-04-23T08:58:34.525Z,2.63
2023-04-23T09:01:01.430Z,3.30
2023-04-23T09:03:28.686Z,2.95
2023-04-23T09:05:56.087Z,3.45
2023-04-23T09:08:22.875Z,3.42
2023-04-23T09:10:50.491Z,3.60
2023-04-23T09:13:17.227Z,3.60
2023-04-23T09:15:44.193Z,3.65
2023-04-23T09:18:11.282Z,3.28
2023-04-23T09:20:38.013Z,3.25
2023-04-23T09:23:08.344Z,3.30
2023-04-23T09:25:35.233Z,3.17
2023-04-23T09:28:02.034Z,2.75
2023-04-23T09:30:29.310Z,2.80
2023-04-23T09:32:56.082Z,3.03
2023-04-23T09:35:23.090Z,2.80
2023-04-23T09:37:52.491Z,2.92
2023-04-23T09:40:22.311Z,2.90
2023-04-23T09:42:50.526Z,3.22
2023-04-23T09:45:17.378Z,3.00
2023-04-23T09:47:53.194Z,1.92
2023-04-23T09:50:20.721Z,2.75
2023-04-23T09:52:54.061Z,2.70
2023-04-23T09:55:43.620Z,2.60
2023-04-23T09:58:13.153Z,3.15
2023-04-23T10:00:40.344Z,2.13
2023-04-23T10:03:08.624Z,2.47
2023-04-23T10:05:59.813Z,3.30
2023-04-23T10:08:27.832Z,2.60
2023-04-23T10:11:09.610Z,2.53
2023-04-23T10:13:40.971Z,2.95
2023-04-23T10:16:21.599Z,2.97
2023-04-23T10:18:50.944Z,2.57
2023-04-23T10:21:17.718Z,3.03
2023-04-23T10:23:54.357Z,2.70
2023-04-23T10:26:21.162Z,2.58
2023-04-23T10:28:48.333Z,2.75
2023-04-23T10:31:15.707Z,2.67
2023-04-23T10:33:56.059Z,2.63
2023-04-23T10:38:57.878Z,2.92
2023-04-23T10:41:27.913Z,2.50
2023-04-23T10:43:57.961Z,2.83
2023-04-23T10:46:29.168Z,2.45
2023-04-23T10:49:14.725Z,1.98
2023-04-23T10:54:15.678Z,2.92
2023-04-23T10:56:44.090Z,2.83
2023-04-23T10:59:19.434Z,2.83
2023-04-23T11:01:52.761Z,3.03
2023-04-23T11:04:21.949Z,2.22
2023-04-23T11:09:31.673Z,2.38
2023-04-23T11:11:59.295Z,2.70
2023-04-23T11:14:47.660Z,2.75
2023-04-23T11:17:16.024Z,2.90
2023-04-23T11:20:03.349Z,2.78
2023-04-23T11:22:50.275Z,2.30
2023-04-23T11:25:21.873Z,2.90
2023-04-23T11:27:49.460Z,2.80
2023-04-23T11:30:19.110Z,2.55
2023-04-23T11:32:48.844Z,2.90
2023-04-23T11:35:16.823Z,2.60
2023-04-23T11:37:44.173Z,3.67
2023-04-23T11:40:14.120Z,2.80
2023-04-23T11:42:43.099Z,3.70
2023-04-23T11:45:18.258Z,2.47
2023-04-23T11:47:46.005Z,3.33
2023-04-23T11:50:20.748Z,2.25
2023-04-23T11:52:47.486Z,3.05
2023-04-23T11:55:15.698Z,2.38
2023-04-23T11:57:44.332Z,6.00
2023-04-23T12:00:27.435Z,2.97
2023-04-23T12:02:59.687Z,2.65
2023-04-23T12:05:29.655Z,1.90
2023-04-23T12:08:07.901Z,1.85
2023-04-23T12:10:34.786Z,1.92
2023-04-23T12:13:01.931Z,2.60
2023-04-23T12:15:29.435Z,2.03
2023-04-23T12:18:09.312Z,2.80
2023-04-23T12:20:36.003Z,2.42
2023-04-23T12:23:06.685Z,2.58
2023-04-23T12:25:33.815Z,2.53
2023-04-23T12:28:01.407Z,2.40
2023-04-23T12:30:29.847Z,3.50
2023-04-23T12:33:00.669Z,3.22
2023-04-23T12:35:43.565Z,2.67
2023-04-23T12:38:28.911Z,2.50
2023-04-23T12:40:57.008Z,2.40
2023-04-23T12:43:24.309Z,2.03
2023-04-23T12:45:52.007Z,3.17
2023-04-23T12:48:18.711Z,2.83
2023-04-23T12:50:46.541Z,2.47
2023-04-23T12:53:13.338Z,3.05
2023-04-23T12:55:40.104Z,2.78
2023-04-23T12:58:07.156Z,3.92
2023-04-23T13:00:33.829Z,2.40
2023-04-23T13:03:02.311Z,2.05
2023-04-23T13:05:29.007Z,2.72
2023-04-23T13:07:55.790Z,2.47
2023-04-23T13:10:22.422Z,2.83
2023-04-23T13:12:49.273Z,2.20
2023-04-23T13:15:16.008Z,2.03
2023-04-23T13:17:42.755Z,2.78
2023-04-23T13:20:09.566Z,2.60
2023-04-23T13:22:36.539Z,3.53
2023-04-23T13:25:04.374Z,4.65
2023-04-23T13:27:31.144Z,3.83
2023-04-23T13:29:58.668Z,4.05
2023-04-23T13:32:27.565Z,4.15
2023-04-23T13:34:54.392Z,3.67
2023-04-23T13:37:21.048Z,2.97
2023-04-23T13:39:48.290Z,4.13
2023-04-23T13:42:14.882Z,3.85
2023-04-23T13:44:41.601Z,4.72
2023-04-23T13:47:08.354Z,4.85
2023-04-23T13:49:35.043Z,4.72
2023-04-23T13:52:06.414Z,5.10
2023-04-23T13:54:33.310Z,3.92
2023-04-23T13:57:00.920Z,3.72
2023-04-23T13:59:27.611Z,3.22
2023-04-23T14:01:54.330Z,3.22
2023-04-23T14:04:22.424Z,2.33
2023-04-23T14:06:49.207Z,2.95
2023-04-23T14:09:15.949Z,2.75
2023-04-23T14:11:42.624Z,4.55
2023-04-23T14:14:09.251Z,4.55
2023-04-23T14:16:36.116Z,4.05
2023-04-23T14:19:02.755Z,4.43
2023-04-23T14:21:29.562Z,4.70
2023-04-23T14:24:00.953Z,3.90
2023-04-23T14:29:45.214Z,4.32
2023-04-23T14:32:12.486Z,4.07
2023-04-23T14:34:39.529Z,4.43
2023-04-23T14:37:06.250Z,3.50
2023-04-23T14:39:33.781Z,5.05
2023-04-23T14:42:01.166Z,4.50
2023-04-23T14:44:27.834Z,5.90
2023-04-23T14:46:54.655Z,3.63
2023-04-23T14:49:21.610Z,5.13
2023-04-23T14:51:50.878Z,6.22
2023-04-23T14:54:17.925Z,4.85
2023-04-23T14:56:44.645Z,4.43
2023-04-23T14:59:11.358Z,3.40
2023-04-23T15:01:38.254Z,6.28
2023-04-23T15:04:05.562Z,4.38
2023-04-23T15:06:32.256Z,3.70
2023-04-23T15:08:59.012Z,5.30
2023-04-23T15:11:25.776Z,4.45
2023-04-23T15:14:16.240Z,3.70
2023-04-23T15:16:48.663Z,4.85
2023-04-23T15:19:17.792Z,3.22
2023-04-23T15:21:44.965Z,5.05
2023-04-23T15:24:11.619Z,3.60
2023-04-23T15:26:38.363Z,4.25
2023-04-23T15:29:08.414Z,8.73
2023-04-23T15:31:35.107Z,3.67
2023-04-23T15:34:01.853Z,5.80
2023-04-23T15:36:28.679Z,5.15
2023-04-23T15:38:55.300Z,4.00
2023-04-23T15:41:22.067Z,3.88
2023-04-23T15:43:50.314Z,3.10
2023-04-23T15:46:17.176Z,3.00
2023-04-23T15:48:43.960Z,3.00
2023-04-23T15:51:10.647Z,3.30
2023-04-23T15:53:37.293Z,3.17
2023-04-23T15:56:04.422Z,3.63
2023-04-23T15:58:31.131Z,3.22
2023-04-23T16:00:57.835Z,3.00
2023-04-23T16:03:24.747Z,3.90
2023-04-23T16:05:52.243Z,3.33
2023-04-23T16:08:19.027Z,3.75
2023-04-23T16:10:45.755Z,4.38
2023-04-23T16:13:12.399Z,6.43
2023-04-23T16:15:40.591Z,8.38
2023-04-23T16:18:07.384Z,5.70
2023-04-23T16:20:34.251Z,3.78
2023-04-23T16:23:01.428Z,3.33
2023-04-23T16:25:28.287Z,3.70
2023-04-23T16:27:55.559Z,3.53
2023-04-23T16:30:22.838Z,4.50
2023-04-23T16:32:49.503Z,3.63
2023-04-23T16:35:16.343Z,3.08
2023-04-23T16:37:43.500Z,3.65
2023-04-23T16:40:10.417Z,3.78
2023-04-23T16:42:37.222Z,3.85
2023-04-23T16:45:05.196Z,3.25
2023-04-23T16:47:31.971Z,7.10
2023-04-23T16:49:58.905Z,6.68
2023-04-23T16:52:25.698Z,7.40
2023-04-23T16:54:52.437Z,4.43
2023-04-23T16:57:19.144Z,4.38
2023-04-23T16:59:45.945Z,6.30
2023-04-23T17:02:12.915Z,4.55
2023-04-23T17:04:39.846Z,3.65
2023-04-23T17:07:07.396Z,3.42
2023-04-23T17:09:34.100Z,3.42
2023-04-23T17:12:00.731Z,4.28
2023-04-23T17:14:27.712Z,2.75
2023-04-23T17:16:54.520Z,3.60
2023-04-23T17:19:21.133Z,3.95
2023-04-23T17:21:47.852Z,4.30
2023-04-23T17:24:14.624Z,3.72
2023-04-23T17:26:41.632Z,3.50
2023-04-23T17:29:08.375Z,3.00
2023-04-23T17:31:36.863Z,3.30
2023-04-23T17:34:04.943Z,4.13
2023-04-23T17:36:31.715Z,3.75
2023-04-23T17:38:58.432Z,4.10
2023-04-23T17:41:25.138Z,3.47
2023-04-23T17:43:52.296Z,3.85
2023-04-23T17:46:19.108Z,5.45
2023-04-23T17:48:46.011Z,4.65
2023-04-23T17:51:12.886Z,3.67
2023-04-23T17:53:39.598Z,5.18
2023-04-23T17:56:06.325Z,3.67
2023-04-23T17:58:33.039Z,3.88
2023-04-23T18:00:59.697Z,3.80
2023-04-23T18:03:27.908Z,4.25
2023-04-23T18:05:54.968Z,3.83
2023-04-23T18:08:21.687Z,5.78
2023-04-23T18:10:48.410Z,5.97
2023-04-23T18:13:15.168Z,3.70
2023-04-23T18:15:42.278Z,4.70
2023-04-23T18:18:09.313Z,3.92
